createdAt,value
2023-01-15T00:57:19.468Z,28.50
2023-01-15T00:59:47.033Z,26.90
2023-01-15T01:02:14.109Z,29.80
2023-01-15T01:04:41.723Z,27.30
2023-01-15T01:07:08.787Z,29.80
2023-01-15T01:09:35.967Z,25.40
2023-01-15T01:12:03.270Z,27.80
2023-01-15T01:14:30.279Z,30.40
2023-01-15T01:16:57.208Z,32.10
2023-01-15T01:19:24.416Z,29.80
2023-01-15T01:21:51.671Z,32.80
2023-01-15T01:24:23.325Z,32.50
2023-01-15T01:29:20.979Z,34.30
2023-01-15T01:31:47.979Z,35.00
2023-01-15T01:34:15.066Z,34.30
2023-01-15T01:36:42.862Z,35.10
2023-01-15T01:39:14.415Z,36.30
2023-01-15T01:44:37.527Z,33.20
2023-01-15T01:47:07.108Z,34.40
2023-01-15T01:49:34.184Z,32.80
2023-01-15T01:52:03.919Z,31.20
2023-01-15T01:54:31.339Z,29.10
2023-01-15T01:56:58.598Z,31.10
2023-01-15T01:59:25.536Z,29.20
2023-01-15T02:01:53.404Z,31.00
2023-01-15T02:04:21.458Z,30.50
2023-01-15T02:06:48.427Z,29.50
2023-01-15T02:09:15.611Z,29.50
2023-01-15T02:11:42.574Z,29.40
2023-01-15T02:14:18.615Z,30.20
2023-01-15T02:16:49.770Z,30.00
2023-01-15T02:19:38.481Z,30.40
2023-01-15T02:22:38.504Z,32.40
2023-01-15T02:25:16.876Z,30.30
2023-01-15T02:27:49.825Z,27.10
2023-01-15T02:30:23.167Z,29.00
2023-01-15T02:33:00.567Z,28.10
2023-01-15T02:35:31.401Z,28.30
2023-01-15T02:38:00.432Z,23.90
2023-01-15T02:40:27.596Z,28.40
2023-01-15T02:42:54.936Z,26.90
2023-01-15T02:45:30.740Z,28.10
2023-01-15T02:48:19.991Z,24.40
2023-01-15T02:50:55.933Z,28.80
2023-01-15T02:53:25.523Z,28.90
2023-01-15T02:55:55.809Z,27.70
2023-01-15T02:58:28.665Z,27.90
2023-01-15T03:00:56.976Z,27.70
2023-01-15T03:03:42.487Z,26.50
2023-01-15T03:06:37.422Z,27.70
2023-01-15T03:09:05.453Z,30.20
2023-01-15T03:11:34.488Z,27.20
2023-01-15T03:14:04.698Z,29.00
2023-01-15T03:16:59.931Z,27.70
2023-01-15T03:19:52.494Z,29.60
2023-01-15T03:22:23.712Z,32.90
2023-01-15T03:24:55.877Z,29.30
2023-01-15T03:27:23.033Z,29.50
2023-01-15T03:30:20.681Z,30.00
2023-01-15T03:32:49.358Z,33.00
2023-01-15T03:35:56.306Z,30.90
2023-01-15T03:38:47.025Z,32.80
2023-01-15T03:42:04.455Z,32.00
2023-01-15T03:44:53.006Z,29.00
2023-01-15T03:47:27.251Z,30.20
2023-01-15T03:49:58.281Z,32.00
2023-01-15T03:53:04.707Z,31.70
2023-01-15T03:56:08.203Z,28.50
2023-01-15T03:58:51.375Z,27.50
2023-01-15T04:01:24.896Z,30.10
2023-01-15T04:03:52.139Z,29.90
2023-01-15T04:06:22.173Z,31.40
2023-01-15T04:08:49.145Z,33.60
2023-01-15T04:11:22.687Z,32.80
2023-01-15T04:13:51.808Z,33.10
2023-01-15T04:16:38.985Z,32.50
2023-01-15T04:19:06.703Z,35.40
2023-01-15T04:21:35.720Z,31.70
2023-01-15T04:24:02.646Z,33.60
2023-01-15T04:26:29.707Z,34.10
2023-01-15T04:28:56.904Z,31.60
2023-01-15T04:31:23.969Z,31.60
2023-01-15T04:33:50.933Z,33.40
2023-01-15T04:36:17.931Z,32.00
2023-01-15T04:38:45.101Z,31.40
2023-01-15T04:41:30.562Z,37.60
2023-01-15T04:44:06.678Z,32.70
2023-01-15T04:46:38.633Z,33.10
2023-01-15T04:49:06.640Z,33.30
2023-01-15T04:51:33.640Z,33.00
2023-01-15T04:54:03.069Z,36.70
2023-01-15T04:56:30.074Z,34.10
2023-01-15T04:59:00.276Z,32.10
2023-01-15T05:01:27.329Z,33.70
2023-01-15T05:03:54.280Z,32.80
2023-01-15T05:06:21.333Z,34.60
2023-01-15T05:08:48.326Z,34.30
2023-01-15T05:11:15.311Z,37.20
2023-01-15T05:13:42.273Z,37.40
2023-01-15T05:16:17.306Z,39.50
2023-01-15T05:18:44.367Z,34.30
2023-01-15T05:21:25.196Z,37.20
2023-01-15T05:23:54.103Z,41.00
2023-01-15T05:26:21.671Z,38.50
2023-01-15T05:28:48.858Z,35.70
2023-01-15T05:31:17.148Z,36.40
2023-01-15T05:33:44.546Z,36.20
2023-01-15T05:36:12.896Z,38.70
2023-01-15T05:38:39.953Z,36.30
2023-01-15T05:41:26.419Z,37.00
2023-01-15T05:43:53.663Z,38.20
2023-01-15T05:46:20.728Z,36.10
2023-01-15T05:48:47.735Z,38.60
2023-01-15T05:51:14.823Z,37.70
2023-01-15T05:53:41.836Z,39.10
2023-01-15T05:56:08.884Z,37.40
2023-01-15T05:58:35.818Z,36.70
2023-01-15T06:01:07.456Z,38.10
2023-01-15T06:03:34.793Z,37.90
2023-01-15T06:06:01.797Z,40.20
2023-01-15T06:08:28.775Z,37.50
2023-01-15T06:10:55.809Z,35.70
2023-01-15T06:13:22.992Z,33.70
2023-01-15T06:15:50.041Z,36.30
2023-01-15T06:18:17.004Z,35.40
2023-01-15T06:20:44.018Z,37.10
2023-01-15T06:23:10.979Z,36.10
2023-01-15T06:25:38.036Z,35.00
2023-01-15T06:28:05.432Z,36.50
2023-01-15T06:30:32.889Z,31.20
2023-01-15T06:32:59.832Z,34.90
2023-01-15T06:35:26.797Z,33.70
2023-01-15T06:37:53.710Z,35.60
2023-01-15T06:40:20.698Z,35.30
2023-01-15T06:43:06.259Z,32.00
2023-01-15T06:46:01.054Z,31.80
2023-01-15T06:48:28.078Z,31.30
2023-01-15T06:50:54.972Z,33.40
2023-01-15T06:53:21.949Z,30.80
2023-01-15T06:55:48.950Z,33.80
2023-01-15T10:27:48.890Z,28.50
2023-01-15T10:30:24.942Z,23.60
2023-01-15T10:33:03.595Z,25.50
2023-01-15T10:35:35.045Z,23.10
2023-01-15T10:38:28.550Z,23.70
2023-01-15T10:41:17.372Z,19.50
2023-01-15T10:43:49.263Z,22.30
2023-01-15T10:46:38.492Z,18.80
2023-01-15T10:49:13.672Z,21.00
2023-01-15T10:52:04.574Z,19.00
2023-01-15T10:54:42.792Z,19.70
2023-01-15T10:57:16.646Z,20.40
2023-01-15T10:59:52.840Z,22.70
2023-01-15T11:02:19.960Z,21.30
2023-01-15T11:04:46.993Z,26.90
2023-01-15T11:07:14.223Z,28.20
2023-01-15T11:09:41.596Z,26.00
2023-01-15T11:12:27.003Z,31.60
2023-01-15T11:15:12.499Z,26.90
2023-01-15T11:18:02.567Z,30.80
2023-01-15T11:20:45.759Z,29.70
2023-01-15T11:23:14.747Z,33.60
2023-01-15T11:25:52.551Z,31.50
2023-01-15T11:28:30.029Z,32.00
2023-01-15T11:30:57.072Z,31.40
2023-01-15T11:33:26.867Z,35.00
2023-01-15T11:35:58.877Z,37.30
2023-01-15T11:38:30.212Z,34.20
2023-01-15T11:40:59.900Z,34.70
2023-01-15T11:43:46.907Z,33.70
2023-01-15T11:46:49.466Z,31.60
2023-01-15T11:49:36.415Z,28.90
2023-01-15T11:52:05.238Z,30.30
2023-01-15T11:54:32.976Z,28.90
2023-01-15T11:56:59.929Z,33.60
2023-01-15T11:59:27.091Z,32.00
2023-01-15T12:02:00.038Z,33.90
2023-01-15T12:04:31.544Z,30.20
2023-01-15T12:06:59.261Z,30.80
2023-01-15T12:09:54.232Z,30.60
2023-01-15T12:12:41.082Z,28.70
2023-01-15T12:15:26.606Z,31.00
2023-01-15T12:18:08.798Z,31.50
2023-01-15T12:21:00.894Z,28.10
2023-01-15T12:24:01.933Z,25.60
2023-01-15T12:26:38.736Z,28.60
2023-01-15T12:29:07.195Z,29.70
2023-01-15T12:31:40.569Z,27.30
2023-01-15T12:34:28.631Z,32.70
2023-01-15T12:37:06.818Z,33.80
2023-01-15T12:39:46.636Z,33.40
2023-01-15T12:42:34.713Z,32.80
2023-01-15T12:45:07.950Z,33.20
2023-01-15T12:48:03.687Z,36.20
2023-01-15T12:50:45.335Z,34.40
2023-01-15T12:55:42.938Z,32.60
2023-01-15T12:58:27.093Z,34.30
2023-01-15T13:01:01.205Z,33.70
2023-01-15T13:03:30.546Z,34.50
2023-01-15T13:06:02.793Z,37.10
2023-01-15T13:08:38.887Z,35.40
2023-01-15T13:11:07.508Z,39.30
2023-01-15T13:13:36.568Z,40.90
2023-01-15T13:16:17.285Z,38.90
2023-01-15T13:18:50.745Z,36.80
2023-01-15T13:21:18.455Z,38.40
2023-01-15T13:23:57.608Z,39.90
2023-01-15T13:27:15.767Z,39.70
2023-01-15T13:29:45.653Z,35.20
2023-01-15T13:32:17.258Z,36.00
2023-01-15T13:37:25.059Z,32.40
2023-01-15T13:39:54.001Z,31.30
2023-01-15T13:42:35.443Z,30.80
2023-01-15T13:45:28.088Z,29.80
2023-01-15T13:48:05.793Z,30.60
2023-01-15T13:50:38.173Z,30.60
2023-01-15T13:53:13.974Z,32.90
2023-01-15T13:55:42.320Z,30.90
2023-01-15T13:58:24.514Z,32.70
2023-01-15T14:01:17.897Z,35.00
2023-01-15T14:04:04.000Z,31.90
2023-01-15T14:06:44.002Z,32.80
2023-01-15T14:09:26.414Z,33.60
2023-01-15T14:12:02.945Z,33.10
2023-01-15T14:14:45.201Z,37.00
2023-01-15T14:17:57.761Z,32.70
2023-01-15T14:20:34.169Z,35.40
2023-01-15T14:23:16.860Z,37.70
2023-01-15T14:26:05.204Z,38.20
2023-01-15T14:28:54.114Z,39.30
2023-01-15T14:31:42.979Z,34.90
2023-01-15T14:34:14.217Z,35.20
2023-01-15T14:36:51.544Z,36.10
2023-01-15T14:39:31.791Z,37.00
2023-01-15T14:42:19.415Z,38.90
2023-01-15T14:44:46.483Z,38.40
2023-01-15T14:47:33.814Z,36.10
2023-01-15T14:50:38.559Z,35.70
2023-01-15T14:53:11.538Z,38.20
2023-01-15T14:55:44.264Z,34.20
2023-01-15T14:58:48.503Z,36.30
2023-01-15T15:01:21.648Z,32.60
2023-01-15T15:03:58.092Z,30.70
2023-01-15T15:06:26.601Z,33.70
2023-01-15T15:08:55.545Z,34.50
2023-01-15T15:11:43.987Z,33.00
2023-01-15T15:14:11.826Z,34.20
2023-01-15T15:16:43.965Z,31.00
2023-01-15T15:19:26.231Z,32.40
2023-01-15T15:21:53.169Z,31.90
2023-01-15T15:24:24.563Z,31.70
2023-01-15T15:26:51.554Z,31.00
2023-01-15T15:29:20.206Z,29.20
2023-01-15T15:31:49.483Z,30.10
2023-01-15T15:34:22.778Z,31.50
2023-01-15T15:36:49.765Z,29.50
2023-01-15T15:39:24.694Z,31.00
2023-01-15T15:42:10.120Z,31.40
2023-01-15T15:45:14.875Z,28.50
2023-01-15T15:48:01.035Z,28.60
2023-01-15T15:50:33.146Z,28.20
2023-01-15T15:53:04.482Z,28.30
2023-01-15T15:55:39.486Z,27.80
2023-01-15T15:58:06.479Z,26.40
2023-01-15T16:00:34.937Z,28.80
2023-01-15T16:03:05.891Z,28.90
2023-01-15T16:05:33.122Z,28.90
2023-01-15T16:08:16.800Z,26.30
2023-01-15T16:10:43.911Z,22.50
2023-01-15T16:13:23.152Z,21.00
2023-01-15T16:15:55.905Z,20.50
2023-01-15T16:18:28.159Z,20.80
2023-01-15T16:20:55.127Z,21.90
2023-01-15T16:23:29.741Z,25.80
2023-01-15T16:26:01.460Z,23.20
2023-01-15T16:28:36.310Z,25.40
2023-01-15T16:31:03.692Z,24.90
2023-01-15T16:33:30.698Z,26.00
2023-01-15T16:35:58.560Z,28.60
2023-01-15T16:38:25.697Z,28.40
2023-01-15T16:40:52.656Z,27.80
2023-01-15T16:43:24.701Z,31.10
2023-01-15T16:46:16.826Z,28.20
2023-01-15T16:48:48.135Z,29.90
2023-01-15T16:51:27.155Z,25.70
2023-01-15T16:53:54.210Z,27.50
2023-01-15T16:56:37.711Z,27.10
2023-01-15T16:59:06.203Z,31.00
2023-01-15T17:01:42.447Z,27.60
2023-01-15T17:04:28.510Z,27.80
2023-01-15T17:07:14.892Z,26.20
2023-01-15T17:09:50.362Z,27.20
2023-01-15T17:12:42.297Z,26.70
2023-01-15T17:15:15.610Z,25.70
2023-01-15T17:17:46.165Z,25.00
2023-01-15T17:20:13.578Z,24.40
2023-01-15T17:22:41.468Z,27.50
2023-01-15T17:25:21.897Z,23.00
2023-01-15T17:27:48.927Z,23.50
2023-01-15T17:30:16.683Z,23.30
2023-01-15T17:32:43.669Z,22.70
2023-01-15T17:35:32.834Z,24.90
2023-01-15T17:37:59.826Z,26.10
2023-01-15T17:40:27.248Z,26.10
2023-01-15T17:42:54.187Z,22.70
2023-01-15T17:45:28.987Z,23.90
2023-01-15T17:47:56.655Z,28.70
2023-01-15T17:50:24.373Z,29.00
2023-01-15T17:52:51.500Z,26.10
2023-01-15T17:55:39.543Z,27.60
2023-01-15T17:58:25.139Z,28.10
2023-01-15T18:01:10.627Z,28.40
2023-01-15T18:03:57.494Z,27.70
2023-01-15T18:06:24.453Z,30.00
2023-01-15T18:08:55.691Z,30.80
2023-01-15T18:11:23.518Z,29.90
2023-01-15T18:13:50.602Z,30.40
2023-01-15T18:16:17.580Z,31.40
2023-01-15T18:18:44.697Z,28.60
2023-01-15T18:21:11.647Z,29.30
2023-01-15T18:23:39.752Z,31.60
2023-01-15T18:26:07.393Z,30.70
2023-01-15T18:28:35.351Z,31.00
2023-01-15T18:31:02.975Z,31.00
2023-01-15T18:33:30.167Z,28.90
2023-01-15T18:36:13.865Z,28.40
2023-01-15T18:38:43.890Z,36.50
2023-01-15T18:41:36.124Z,35.50
2023-01-15T18:44:26.485Z,30.60
2023-01-15T18:46:58.792Z,36.20
2023-01-15T18:49:26.201Z,31.30
2023-01-15T18:52:11.756Z,31.90
2023-01-15T18:54:38.801Z,32.30
2023-01-15T18:57:05.863Z,30.80
2023-01-15T18:59:33.614Z,30.60
2023-01-15T19:02:00.757Z,33.90
2023-01-15T19:04:27.940Z,29.20
2023-01-15T19:06:54.952Z,29.60
2023-01-15T19:09:24.324Z,27.30
2023-01-15T19:11:52.189Z,31.20
2023-01-15T19:14:38.299Z,28.60
2023-01-15T19:17:23.819Z,27.60
2023-01-15T19:19:50.877Z,28.40
2023-01-15T19:22:36.224Z,25.30
2023-01-15T19:25:03.322Z,25.80
2023-01-15T19:27:30.281Z,26.20
2023-01-15T19:29:58.323Z,26.50
2023-01-15T19:32:25.279Z,24.10
2023-01-15T19:34:53.218Z,27.30
2023-01-15T19:37:21.152Z,26.80
2023-01-15T19:39:48.129Z,27.00
2023-01-15T19:42:33.599Z,26.60
2023-01-15T19:45:19.146Z,23.80
2023-01-15T19:48:04.779Z,25.90
2023-01-15T19:50:35.645Z,23.10
2023-01-15T19:53:02.783Z,26.00
2023-01-15T19:55:30.039Z,29.70
2023-01-15T19:58:01.353Z,28.70
2023-01-15T20:00:28.620Z,29.90
2023-01-15T20:02:56.537Z,29.10
2023-01-15T20:05:24.124Z,28.80
2023-01-15T20:07:51.086Z,28.00
2023-01-15T20:10:19.684Z,29.40
2023-01-15T20:13:05.210Z,27.30
2023-01-15T20:15:32.391Z,25.80
2023-01-15T20:17:59.668Z,25.30
2023-01-15T20:20:26.685Z,26.90
2023-01-15T20:22:56.678Z,28.10
2023-01-15T20:25:26.619Z,26.80
2023-01-15T20:27:54.265Z,23.70
2023-01-15T20:30:24.631Z,27.10
2023-01-15T20:32:53.056Z,29.20
2023-01-15T20:35:22.605Z,24.10
2023-01-15T20:37:50.338Z,23.70
2023-01-15T20:40:20.950Z,22.00
2023-01-15T20:43:06.342Z,20.30
2023-01-15T20:45:33.664Z,20.90
2023-01-15T20:48:12.774Z,20.50
2023-01-15T20:51:00.832Z,18.20
2023-01-15T20:53:33.753Z,18.60
2023-01-15T20:56:01.909Z,17.40
2023-01-15T20:58:28.996Z,19.70
2023-01-15T21:01:02.215Z,18.40
2023-01-15T21:03:29.199Z,17.70
2023-01-15T21:05:59.358Z,18.20
2023-01-15T21:08:26.825Z,17.70
2023-01-15T21:10:54.309Z,18.60
2023-01-15T21:13:23.024Z,18.50
2023-01-15T21:15:58.243Z,18.60
2023-01-15T21:18:26.419Z,14.50
2023-01-15T21:20:53.575Z,15.40
2023-01-15T21:23:20.939Z,14.80
2023-01-15T21:25:48.004Z,16.90
2023-01-15T21:28:15.238Z,16.60
2023-01-15T21:30:42.562Z,14.60
2023-01-15T21:33:11.355Z,15.20
2023-01-15T21:35:40.278Z,15.90
2023-01-15T21:38:08.279Z,15.60
2023-01-15T21:40:38.522Z,16.70
2023-01-15T21:43:24.559Z,17.60
2023-01-15T21:45:51.782Z,15.70
2023-01-15T21:48:18.907Z,16.90
2023-01-15T21:50:45.941Z,15.30
2023-01-15T21:53:12.905Z,16.50
2023-01-15T21:55:39.869Z,17.60
2023-01-15T21:58:06.847Z,16.70
2023-01-15T22:00:33.847Z,15.60
